Weather at Chiang Rai International Airport

Public forecast

Using degrees Celsius for public forecast. Weather courtesy of forecast.io.

Current aviation weather report (METAR) for Chiang Rai International Airport

Retrieved 2020/12/03 19:00 UTC (52 minutes ago):

VTCT 031900Z 04005KT 9999 BKN035 21/20 Q1016 NOSIG

Aviation forecast (TAF) for Chiang Rai International Airport

Retrieved 2020/12/03 18:00 UTC (2 hours ago):

TAF VTCT 031700Z 0318/0424 02005KT 9999 FEW045 BECMG 0323/0400 00000KT 4000 BR FEW012 BECMG 0401/0403 02005KT 9999 NSW FEW025